Time;durP1;ratioP1;P1;durP2;ratioP2;P2;SDS_P1;SDS_P2;PMS_P1;PMS_P2;Temp;Humidity;BMP_temperature;BMP_pressure;BME280_temperature;BME280_humidity;BME280_pressure;Samples;Min_cycle;Max_cycle;Signal;HPM_P1;HPM_P2
2022/11/14 00:01:19;;;;;;;31.52;17.42;;;;;;;;;;6218060;23;20020;-93
2022/11/14 00:03:51;;;;;;;35.83;17.98;;;;;;;;;;6204841;23;20087;-88
2022/11/14 00:06:18;;;;;;;30.77;17.00;;;;;;;;;;6175374;23;20056;-88
2022/11/14 00:08:44;;;;;;;32.55;17.33;;;;;;;;;;6175915;23;20013;-90
2022/11/14 00:11:10;;;;;;;36.33;18.92;;;;;;;;;;6171452;23;20017;-89
2022/11/14 00:13:36;;;;;;;34.67;18.60;;;;;;;;;;6175756;23;20051;-88
2022/11/14 00:16:03;;;;;;;35.60;19.75;;;;;;;;;;6175736;23;20024;-87
2022/11/14 00:18:29;;;;;;;35.63;20.30;;;;;;;;;;6173994;23;20040;-87
2022/11/14 00:20:55;;;;;;;39.45;20.50;;;;;;;;;;6149697;23;20017;-87
2022/11/14 00:23:21;;;;;;;41.35;21.05;;;;;;;;;;6151457;23;20017;-87
2022/11/14 00:25:50;;;;;;;33.97;20.65;;;;;;;;;;6176176;23;20070;-87
2022/11/14 00:28:16;;;;;;;44.00;23.63;;;;;;;;;;6176548;23;20374;-87
2022/11/14 00:30:46;;;;;;;37.88;21.75;;;;;;;;;;6170958;23;20021;-87
2022/11/14 00:33:12;;;;;;;36.15;20.33;;;;;;;;;;6146100;23;20017;-89
2022/11/14 00:35:38;;;;;;;45.03;21.33;;;;;;;;;;6145795;23;20027;-88
2022/11/14 00:38:04;;;;;;;42.53;22.67;;;;;;;;;;6156803;23;20006;-87
2022/11/14 00:40:30;;;;;;;41.70;21.60;;;;;;;;;;6157833;23;20018;-88
2022/11/14 00:42:56;;;;;;;40.38;22.50;;;;;;;;;;6156680;23;20049;-91
2022/11/14 00:45:26;;;;;;;38.35;22.02;;;;;;;;;;6160709;23;20005;-88
2022/11/14 00:47:53;;;;;;;38.45;21.10;;;;;;;;;;6194151;23;20079;-87
2022/11/14 00:50:19;;;;;;;35.13;21.35;;;;;;;;;;6209749;23;20032;-88
2022/11/14 00:52:46;;;;;;;36.83;21.33;;;;;;;;;;6211680;23;20017;-87
2022/11/14 00:55:26;;;;;;;38.15;21.13;;;;;;;;;;6184219;23;20032;-92
2022/11/14 00:57:55;;;;;;;36.88;21.23;;;;;;;;;;6185609;23;20065;-87
2022/11/14 01:00:21;;;;;;;36.80;20.10;;;;;;;;;;6160556;23;20021;-88
2022/11/14 01:02:47;;;;;;;32.28;19.52;;;;;;;;;;6161004;23;20017;-87
2022/11/14 01:05:13;;;;;;;40.35;21.52;;;;;;;;;;6184450;23;20032;-87
2022/11/14 01:07:39;;;;;;;35.83;19.13;;;;;;;;;;6178443;23;20028;-87
2022/11/14 01:10:06;;;;;;;38.45;20.52;;;;;;;;;;6175620;23;20020;-88
2022/11/14 01:12:33;;;;;;;35.20;20.15;;;;;;;;;;6175047;23;20024;-88
2022/11/14 01:14:59;;;;;;;36.22;21.10;;;;;;;;;;6173317;23;20024;-88
2022/11/14 01:17:27;;;;;;;34.50;21.33;;;;;;;;;;6174318;23;20024;-88
2022/11/14 01:19:53;;;;;;;39.05;21.60;;;;;;;;;;6174307;23;20017;-88
2022/11/14 01:22:20;;;;;;;32.97;20.30;;;;;;;;;;6174850;23;20017;-87
2022/11/14 01:24:46;;;;;;;38.55;21.85;;;;;;;;;;6148178;23;20063;-88
2022/11/14 01:27:12;;;;;;;36.85;21.88;;;;;;;;;;6174706;23;20021;-90
2022/11/14 01:29:38;;;;;;;36.67;22.58;;;;;;;;;;6150142;23;20013;-88
2022/11/14 01:32:04;;;;;;;41.88;22.95;;;;;;;;;;6149578;23;20017;-88
2022/11/14 01:34:30;;;;;;;37.83;23.05;;;;;;;;;;6174272;23;20028;-88
2022/11/14 01:36:59;;;;;;;37.83;21.50;;;;;;;;;;6160890;23;20017;-88
2022/11/14 01:39:27;;;;;;;37.95;22.35;;;;;;;;;;6175027;23;20028;-87
2022/11/14 01:41:54;;;;;;;41.47;23.13;;;;;;;;;;6176059;23;20103;-87
2022/11/14 01:44:54;;;;;;;41.78;22.73;;;;;;;;;;6203390;23;20013;-88
2022/11/14 01:47:28;;;;;;;39.42;23.17;;;;;;;;;;6225812;23;20027;-87
2022/11/14 01:50:04;;;;;;;43.72;24.92;;;;;;;;;;6210337;23;20016;-87
2022/11/14 01:52:35;;;;;;;38.70;22.73;;;;;;;;;;6209591;23;20025;-87
2022/11/14 01:55:04;;;;;;;41.70;24.33;;;;;;;;;;6209072;23;20031;-87
2022/11/14 01:57:33;;;;;;;41.45;24.83;;;;;;;;;;6184306;23;20028;-87
2022/11/14 02:00:03;;;;;;;47.38;25.77;;;;;;;;;;6165604;23;20021;-87
2022/11/14 02:02:29;;;;;;;42.28;25.52;;;;;;;;;;6152761;23;20084;-87
2022/11/14 02:05:05;;;;;;;41.22;25.75;;;;;;;;;;6160115;23;20017;-87
2022/11/14 02:07:35;;;;;;;46.58;27.65;;;;;;;;;;6187921;23;20057;-89
2022/11/14 02:12:54;;;;;;;47.65;28.27;;;;;;;;;;6240970;23;20040;-88
2022/11/14 02:15:21;;;;;;;47.42;26.65;;;;;;;;;;6241487;23;20020;-88
2022/11/14 02:17:47;;;;;;;48.33;26.90;;;;;;;;;;6191550;23;20017;-88
2022/11/14 02:20:13;;;;;;;42.33;26.67;;;;;;;;;;6191437;23;20057;-89
2022/11/14 02:22:40;;;;;;;48.15;27.70;;;;;;;;;;6182558;23;20430;-88
2022/11/14 02:25:12;;;;;;;50.67;27.80;;;;;;;;;;6176978;23;20024;-87
2022/11/14 02:27:39;;;;;;;45.15;26.48;;;;;;;;;;6153430;23;20048;-88
2022/11/14 02:30:06;;;;;;;53.33;26.42;;;;;;;;;;6143179;23;20017;-88
2022/11/14 02:32:32;;;;;;;47.65;26.55;;;;;;;;;;6124161;23;20029;-88
2022/11/14 02:34:58;;;;;;;46.55;26.30;;;;;;;;;;6125695;23;20014;-88
2022/11/14 02:37:25;;;;;;;53.90;27.63;;;;;;;;;;6142698;23;20077;-87
2022/11/14 02:39:51;;;;;;;45.63;26.65;;;;;;;;;;6202902;23;20021;-87
2022/11/14 02:42:17;;;;;;;46.65;27.30;;;;;;;;;;6179931;23;20025;-87
2022/11/14 02:44:43;;;;;;;51.63;28.23;;;;;;;;;;6180926;23;20339;-87
2022/11/14 02:47:09;;;;;;;49.83;29.42;;;;;;;;;;6205532;23;20355;-87
2022/11/14 02:49:35;;;;;;;49.03;28.85;;;;;;;;;;6180962;23;20069;-88
2022/11/14 02:52:01;;;;;;;44.63;27.17;;;;;;;;;;6181475;23;20012;-88
2022/11/14 02:54:27;;;;;;;54.10;29.27;;;;;;;;;;6205582;23;20021;-88
2022/11/14 02:56:53;;;;;;;51.28;30.13;;;;;;;;;;6181173;23;20024;-88
2022/11/14 02:59:19;;;;;;;50.33;29.67;;;;;;;;;;6204930;23;20021;-88
2022/11/14 03:01:46;;;;;;;48.13;28.58;;;;;;;;;;6180594;23;20087;-87
2022/11/14 03:04:12;;;;;;;48.50;27.23;;;;;;;;;;6181414;23;20029;-87
2022/11/14 03:06:38;;;;;;;50.90;29.83;;;;;;;;;;6181972;23;20017;-87
2022/11/14 03:09:04;;;;;;;49.78;28.33;;;;;;;;;;6182812;23;20077;-88
2022/11/14 03:11:30;;;;;;;51.55;31.25;;;;;;;;;;6207390;23;20001;-87
2022/11/14 03:13:56;;;;;;;52.45;28.65;;;;;;;;;;6157974;23;20017;-88
2022/11/14 03:16:28;;;;;;;51.65;29.00;;;;;;;;;;6181017;23;20021;-88
2022/11/14 03:18:55;;;;;;;56.35;30.65;;;;;;;;;;6161784;23;20045;-90
2022/11/14 03:21:22;;;;;;;47.00;28.10;;;;;;;;;;6161497;23;20021;-88
2022/11/14 03:23:48;;;;;;;45.85;26.30;;;;;;;;;;6159117;23;20051;-87
2022/11/14 03:26:15;;;;;;;56.53;29.40;;;;;;;;;;6158245;23;20019;-88
2022/11/14 03:28:41;;;;;;;58.22;30.50;;;;;;;;;;6155500;23;20072;-89
2022/11/14 03:31:10;;;;;;;46.10;29.08;;;;;;;;;;6176458;23;20021;-93
2022/11/14 03:33:36;;;;;;;56.13;30.73;;;;;;;;;;6148861;23;20018;-91
2022/11/14 03:36:03;;;;;;;60.00;30.80;;;;;;;;;;6150521;23;20054;-96
2022/11/14 03:38:29;;;;;;;52.03;28.70;;;;;;;;;;6125153;23;20013;-91
2022/11/14 03:40:57;;;;;;;52.47;28.65;;;;;;;;;;6123531;23;20022;-91
2022/11/14 03:43:23;;;;;;;50.28;26.75;;;;;;;;;;6145969;23;20392;-91
2022/11/14 03:45:49;;;;;;;57.95;31.63;;;;;;;;;;6176296;23;20021;-88
2022/11/14 03:48:16;;;;;;;52.85;28.50;;;;;;;;;;6150505;23;20024;-87
2022/11/14 03:50:43;;;;;;;46.97;28.90;;;;;;;;;;6147488;23;20017;-89
2022/11/14 03:53:10;;;;;;;47.83;27.67;;;;;;;;;;6147173;23;20049;-88
2022/11/14 03:55:40;;;;;;;48.80;28.38;;;;;;;;;;6165632;23;20072;-95
2022/11/14 03:58:06;;;;;;;53.60;29.63;;;;;;;;;;6139378;23;20029;-90
2022/11/14 04:00:32;;;;;;;48.00;27.38;;;;;;;;;;6139021;23;20073;-93
2022/11/14 04:02:58;;;;;;;45.13;26.65;;;;;;;;;;6139738;23;20025;-93
2022/11/14 04:05:24;;;;;;;46.55;26.08;;;;;;;;;;6140730;23;20358;-90
2022/11/14 04:07:50;;;;;;;43.67;24.80;;;;;;;;;;6121839;23;20022;-93
2022/11/14 04:10:17;;;;;;;45.97;27.33;;;;;;;;;;6125812;23;20021;-88
2022/11/14 04:12:47;;;;;;;42.08;25.30;;;;;;;;;;6148919;23;20018;-90
2022/11/14 04:15:13;;;;;;;54.47;27.98;;;;;;;;;;6120731;23;20021;-88
2022/11/14 04:17:39;;;;;;;43.80;26.30;;;;;;;;;;6132729;23;20018;-87
2022/11/14 04:20:06;;;;;;;47.20;25.98;;;;;;;;;;6144098;23;20028;-87
2022/11/14 04:22:32;;;;;;;41.85;24.83;;;;;;;;;;6168275;23;20014;-87
2022/11/14 04:24:58;;;;;;;45.53;26.27;;;;;;;;;;6131901;23;20021;-92
2022/11/14 04:27:24;;;;;;;45.72;25.98;;;;;;;;;;6156200;23;20018;-93
2022/11/14 04:29:50;;;;;;;51.75;26.80;;;;;;;;;;6131476;23;20020;-92
2022/11/14 04:32:16;;;;;;;50.75;27.38;;;;;;;;;;6131684;23;20040;-90
2022/11/14 04:34:42;;;;;;;47.33;26.35;;;;;;;;;;6131774;23;20068;-92
2022/11/14 04:37:08;;;;;;;39.72;24.98;;;;;;;;;;6156247;23;20053;-94
2022/11/14 04:39:34;;;;;;;48.38;26.00;;;;;;;;;;6131905;23;20088;-96
2022/11/14 04:42:00;;;;;;;46.47;26.52;;;;;;;;;;6156278;23;20018;-93
2022/11/14 04:44:26;;;;;;;40.42;25.95;;;;;;;;;;6156386;23;20013;-93
2022/11/14 04:46:52;;;;;;;41.53;25.25;;;;;;;;;;6160390;23;20977;-95
2022/11/14 04:49:18;;;;;;;46.58;27.00;;;;;;;;;;6137498;23;20028;-94
2022/11/14 04:51:44;;;;;;;45.88;27.23;;;;;;;;;;6138047;23;20044;-94
2022/11/14 04:54:39;;;;;;;41.90;24.42;;;;;;;;;;6165868;23;20034;-96
2022/11/14 05:00:07;;;;;;;43.58;24.90;;;;;;;;;;6186986;23;20021;-92
2022/11/14 05:02:33;;;;;;;42.58;25.40;;;;;;;;;;6159980;23;20036;-94
2022/11/14 05:05:02;;;;;;;42.70;26.42;;;;;;;;;;6169493;23;20064;-87
2022/11/14 05:07:28;;;;;;;44.42;25.25;;;;;;;;;;6169434;23;20021;-88
2022/11/14 05:09:54;;;;;;;43.00;25.10;;;;;;;;;;6175540;23;20001;-90
2022/11/14 05:12:20;;;;;;;39.55;24.50;;;;;;;;;;6180418;23;20028;-88
2022/11/14 05:14:46;;;;;;;42.05;25.10;;;;;;;;;;6180108;23;20021;-87
2022/11/14 05:17:12;;;;;;;46.17;25.17;;;;;;;;;;6175530;23;20048;-91
2022/11/14 05:19:38;;;;;;;43.60;24.85;;;;;;;;;;6176194;23;20021;-89
2022/11/14 05:22:08;;;;;;;39.30;23.88;;;;;;;;;;6176182;23;20020;-88
2022/11/14 05:24:49;;;;;;;46.33;26.38;;;;;;;;;;6200973;23;20023;-91
2022/11/14 05:27:24;;;;;;;44.05;25.73;;;;;;;;;;6202449;23;20017;-87
2022/11/14 05:29:51;;;;;;;41.70;25.92;;;;;;;;;;6186819;23;20570;-87
2022/11/14 05:32:17;;;;;;;45.15;25.55;;;;;;;;;;6197614;23;20096;-86
2022/11/14 05:34:46;;;;;;;42.80;26.13;;;;;;;;;;6172436;23;20037;-87
2022/11/14 05:37:13;;;;;;;42.67;24.52;;;;;;;;;;6152025;23;20044;-91
2022/11/14 05:39:39;;;;;;;43.10;26.17;;;;;;;;;;6164774;23;20017;-87
2022/11/14 05:42:06;;;;;;;40.15;24.25;;;;;;;;;;6190672;23;20017;-87
2022/11/14 05:44:36;;;;;;;42.70;24.70;;;;;;;;;;6165282;23;20021;-87
2022/11/14 05:47:07;;;;;;;42.17;25.27;;;;;;;;;;6163180;23;20017;-88
2022/11/14 05:49:43;;;;;;;45.40;25.05;;;;;;;;;;6167035;23;20017;-88
2022/11/14 05:52:09;;;;;;;39.83;23.67;;;;;;;;;;6141445;23;20500;-88
2022/11/14 05:54:38;;;;;;;44.83;25.65;;;;;;;;;;6139816;23;20053;-87
2022/11/14 05:57:05;;;;;;;44.03;25.67;;;;;;;;;;6140378;23;20027;-88
2022/11/14 05:59:32;;;;;;;44.38;24.58;;;;;;;;;;6164612;23;20075;-88
2022/11/14 06:02:01;;;;;;;46.85;26.70;;;;;;;;;;6165364;23;20029;-90
2022/11/14 06:04:28;;;;;;;42.83;25.05;;;;;;;;;;6165217;23;20053;-88
2022/11/14 06:06:56;;;;;;;43.95;25.63;;;;;;;;;;6138042;23;20087;-87
2022/11/14 06:09:35;;;;;;;50.13;27.83;;;;;;;;;;6166825;23;20060;-88
2022/11/14 06:12:07;;;;;;;53.65;26.83;;;;;;;;;;6167945;23;20450;-87
2022/11/14 06:14:33;;;;;;;48.83;27.35;;;;;;;;;;6174827;23;20028;-89
2022/11/14 06:17:02;;;;;;;44.65;25.52;;;;;;;;;;6165248;23;20056;-88
2022/11/14 06:19:31;;;;;;;44.40;25.70;;;;;;;;;;6164038;23;20040;-88
2022/11/14 06:21:59;;;;;;;43.45;24.50;;;;;;;;;;6141790;23;20032;-89
2022/11/14 06:24:40;;;;;;;44.58;24.65;;;;;;;;;;6143823;23;20021;-88
2022/11/14 06:27:06;;;;;;;45.90;26.60;;;;;;;;;;6171783;23;20354;-89
2022/11/14 06:29:35;;;;;;;47.17;25.70;;;;;;;;;;6148760;23;20050;-88
2022/11/14 06:32:02;;;;;;;48.92;26.83;;;;;;;;;;6146652;23;20515;-88
2022/11/14 06:34:31;;;;;;;47.72;26.30;;;;;;;;;;6121519;23;20025;-88
2022/11/14 06:37:00;;;;;;;47.25;26.40;;;;;;;;;;6119680;23;20018;-88
2022/11/14 06:39:29;;;;;;;45.65;25.90;;;;;;;;;;6144221;23;20024;-84
2022/11/14 06:41:55;;;;;;;46.78;26.73;;;;;;;;;;6143492;23;20379;-87
2022/11/14 06:44:22;;;;;;;54.67;27.25;;;;;;;;;;6143949;23;20021;-86
2022/11/14 06:46:48;;;;;;;42.53;26.10;;;;;;;;;;6172977;23;20028;-87
2022/11/14 06:49:17;;;;;;;53.50;27.80;;;;;;;;;;6173944;23;20052;-87
2022/11/14 06:51:44;;;;;;;46.33;25.05;;;;;;;;;;6174075;23;20021;-87
2022/11/14 06:54:11;;;;;;;47.58;26.52;;;;;;;;;;6196963;23;20021;-89
2022/11/14 06:56:37;;;;;;;49.53;28.33;;;;;;;;;;6196648;23;20076;-92
2022/11/14 06:59:03;;;;;;;48.67;26.58;;;;;;;;;;6170180;23;20025;-84
2022/11/14 07:01:29;;;;;;;47.92;26.73;;;;;;;;;;6169899;23;20021;-87
2022/11/14 07:06:32;;;;;;;45.25;25.80;;;;;;;;;;6197508;23;20021;-83
2022/11/14 07:08:59;;;;;;;51.55;29.92;;;;;;;;;;6145149;23;20024;-84
2022/11/14 07:11:28;;;;;;;49.25;29.52;;;;;;;;;;6168411;23;20017;-84
2022/11/14 07:13:57;;;;;;;51.80;30.00;;;;;;;;;;6146091;23;20028;-83
2022/11/14 07:16:30;;;;;;;50.80;27.05;;;;;;;;;;6197454;23;20355;-86
2022/11/14 07:18:59;;;;;;;49.42;28.42;;;;;;;;;;6172849;23;20021;-86
2022/11/14 07:21:33;;;;;;;49.25;26.63;;;;;;;;;;6200694;23;20017;-84
2022/11/14 07:23:59;;;;;;;46.10;25.92;;;;;;;;;;6172157;23;20096;-84
2022/11/14 07:26:26;;;;;;;49.47;26.35;;;;;;;;;;6197379;23;20075;-84
2022/11/14 07:28:52;;;;;;;50.67;27.38;;;;;;;;;;6156239;23;20056;-84
2022/11/14 07:31:24;;;;;;;49.53;27.27;;;;;;;;;;6169837;23;20025;-87
2022/11/14 07:33:54;;;;;;;45.47;26.73;;;;;;;;;;6169148;23;20465;-85
2022/11/14 07:36:20;;;;;;;42.33;25.63;;;;;;;;;;6143478;23;20072;-88
2022/11/14 07:41:13;;;;;;;48.45;26.73;;;;;;;;;;6195178;23;20025;-84
2022/11/14 07:43:39;;;;;;;51.13;26.65;;;;;;;;;;6148656;23;20025;-83
2022/11/14 07:46:07;;;;;;;54.05;28.17;;;;;;;;;;6150331;23;20065;-84
2022/11/14 07:48:34;;;;;;;48.67;27.40;;;;;;;;;;6150913;23;20021;-84
2022/11/14 07:51:01;;;;;;;49.85;26.92;;;;;;;;;;6150208;23;20507;-87
2022/11/14 07:53:29;;;;;;;56.55;28.27;;;;;;;;;;6175401;23;20024;-86
2022/11/14 07:55:58;;;;;;;47.22;25.75;;;;;;;;;;6150052;23;20044;-86
2022/11/14 07:58:24;;;;;;;48.50;26.40;;;;;;;;;;6173921;23;20346;-84
2022/11/14 08:00:53;;;;;;;56.05;28.38;;;;;;;;;;6147401;23;20028;-88
2022/11/14 08:03:19;;;;;;;49.90;27.75;;;;;;;;;;6148245;23;20067;-89
2022/11/14 08:05:47;;;;;;;49.88;27.98;;;;;;;;;;6173633;23;20021;-90
2022/11/14 08:08:13;;;;;;;44.72;25.75;;;;;;;;;;6124709;23;20017;-85
2022/11/14 08:10:40;;;;;;;55.20;28.65;;;;;;;;;;6148045;23;20048;-87
2022/11/14 08:13:07;;;;;;;52.10;28.35;;;;;;;;;;6148738;23;20017;-92
2022/11/14 08:15:33;;;;;;;49.40;26.90;;;;;;;;;;6149247;23;20017;-91
2022/11/14 08:18:04;;;;;;;51.25;28.10;;;;;;;;;;6148017;23;20034;-92
2022/11/14 08:20:31;;;;;;;49.15;28.63;;;;;;;;;;6199878;23;20027;-86
2022/11/14 08:23:04;;;;;;;55.65;30.20;;;;;;;;;;6148123;23;20020;-85
2022/11/14 08:25:30;;;;;;;52.13;28.20;;;;;;;;;;6148709;23;20346;-87
2022/11/14 08:27:57;;;;;;;58.63;28.25;;;;;;;;;;6140055;23;20018;-90
2022/11/14 08:30:24;;;;;;;53.78;28.15;;;;;;;;;;6119159;23;20045;-84
2022/11/14 08:32:51;;;;;;;61.65;30.10;;;;;;;;;;6117686;23;20017;-89
2022/11/14 08:35:20;;;;;;;57.55;29.83;;;;;;;;;;6119957;23;20102;-84
2022/11/14 08:37:46;;;;;;;56.35;28.38;;;;;;;;;;6120349;23;20009;-85
2022/11/14 08:40:12;;;;;;;57.63;29.40;;;;;;;;;;6120489;23;20043;-89
2022/11/14 08:42:39;;;;;;;55.03;29.05;;;;;;;;;;6119793;23;20021;-84
2022/11/14 08:45:05;;;;;;;56.13;28.17;;;;;;;;;;6143127;23;20076;-84
2022/11/14 08:47:31;;;;;;;44.90;26.85;;;;;;;;;;6119682;23;20021;-86
2022/11/14 08:49:58;;;;;;;51.53;27.25;;;;;;;;;;6120671;23;20073;-85
2022/11/14 08:52:24;;;;;;;52.95;27.25;;;;;;;;;;6118142;23;20473;-84
2022/11/14 08:54:53;;;;;;;51.40;28.25;;;;;;;;;;6144460;23;20040;-87
2022/11/14 08:57:19;;;;;;;55.83;28.45;;;;;;;;;;6148896;23;20043;-90
2022/11/14 08:59:45;;;;;;;51.30;25.88;;;;;;;;;;6171329;23;20048;-84
2022/11/14 09:02:12;;;;;;;46.15;25.98;;;;;;;;;;6169170;23;20335;-85
2022/11/14 09:04:38;;;;;;;53.22;27.20;;;;;;;;;;6165485;23;20017;-87
2022/11/14 09:07:05;;;;;;;49.15;28.20;;;;;;;;;;6167393;23;20056;-90
2022/11/14 09:09:31;;;;;;;50.67;28.30;;;;;;;;;;6143374;23;20023;-86
2022/11/14 09:12:00;;;;;;;52.38;26.95;;;;;;;;;;6141261;23;20024;-84
2022/11/14 09:14:26;;;;;;;45.85;24.77;;;;;;;;;;6144324;23;20021;-84
2022/11/14 09:16:52;;;;;;;55.47;27.45;;;;;;;;;;6139365;23;20017;-84
2022/11/14 09:19:18;;;;;;;47.67;27.55;;;;;;;;;;6195359;23;20021;-84
2022/11/14 09:21:44;;;;;;;45.20;27.25;;;;;;;;;;6145198;23;20454;-85
2022/11/14 09:24:10;;;;;;;50.15;27.98;;;;;;;;;;6145055;23;20045;-91
2022/11/14 09:26:36;;;;;;;45.28;24.98;;;;;;;;;;6145617;23;20017;-90
2022/11/14 09:29:05;;;;;;;46.63;25.70;;;;;;;;;;6120570;23;20029;-90
2022/11/14 09:31:31;;;;;;;44.15;25.45;;;;;;;;;;6136945;23;20025;-88
2022/11/14 09:33:57;;;;;;;45.75;25.88;;;;;;;;;;6108382;23;20026;-83
2022/11/14 09:36:23;;;;;;;48.25;25.75;;;;;;;;;;6108817;23;20021;-84
2022/11/14 09:38:52;;;;;;;47.03;24.73;;;;;;;;;;6110247;23;20474;-83
2022/11/14 09:41:24;;;;;;;44.90;25.98;;;;;;;;;;6133826;23;20018;-83
2022/11/14 09:44:03;;;;;;;50.22;27.75;;;;;;;;;;6134288;23;20021;-84
2022/11/14 09:46:33;;;;;;;44.35;27.60;;;;;;;;;;6114383;23;20481;-86
2022/11/14 09:49:00;;;;;;;51.92;27.95;;;;;;;;;;6169185;23;20018;-85
2022/11/14 09:51:28;;;;;;;46.95;26.10;;;;;;;;;;6143721;23;20100;-90
2022/11/14 09:53:57;;;;;;;52.67;27.40;;;;;;;;;;6118949;23;20021;-84
2022/11/14 09:56:24;;;;;;;41.22;25.83;;;;;;;;;;6144675;23;20022;-83
2022/11/14 09:58:50;;;;;;;50.08;26.77;;;;;;;;;;6143060;23;20048;-83
2022/11/14 10:01:23;;;;;;;46.15;25.38;;;;;;;;;;6134632;23;20354;-84
2022/11/14 10:03:52;;;;;;;45.15;26.85;;;;;;;;;;6113048;23;20017;-83
2022/11/14 10:06:22;;;;;;;44.42;26.95;;;;;;;;;;6111075;23;20014;-83
2022/11/14 10:08:52;;;;;;;48.72;27.35;;;;;;;;;;6114746;23;20065;-84
2022/11/14 10:11:39;;;;;;;44.03;24.33;;;7.00;99.90;;;;;;6116922;23;20024;-83
2022/11/14 10:14:23;;;;;;;46.05;25.40;;;;;;;;;;6138057;23;20041;-83
2022/11/14 10:16:49;;;;;;;42.83;24.70;;;;;;;;;;6108628;23;20510;-84
2022/11/14 10:19:32;;;;;;;47.90;27.27;;;;;;;;;;6159834;23;20067;-83
2022/11/14 10:21:58;;;;;;;46.15;26.70;;;;;;;;;;6110018;23;20033;-83
2022/11/14 10:25:02;;;;;;;46.03;25.30;;;7.10;99.90;;;;;;6111714;23;20014;-83
2022/11/14 10:27:39;;;;;;;45.20;23.65;;;7.20;99.90;;;;;;6018523;23;20019;-83
2022/11/14 10:30:10;;;;;;;41.63;24.77;;;;;;;;;;6026378;23;20027;-83
2022/11/14 10:32:50;;;;;;;44.72;25.20;;;;;;;;;;6000465;23;20015;-83
2022/11/14 10:35:16;;;;;;;50.05;25.48;;;;;;;;;;6000154;23;20373;-83
2022/11/14 10:37:42;;;;;;;44.03;24.80;;;;;;;;;;6022459;23;20019;-84
2022/11/14 10:40:17;;;;;;;41.75;25.90;;;;;;;;;;6022528;23;20102;-87
2022/11/14 10:42:46;;;;;;;45.97;24.48;;;;;;;;;;6044922;23;20071;-83
2022/11/14 10:45:32;;;;;;;41.90;25.83;;;;;;;;;;5996478;23;20079;-82
2022/11/14 10:48:10;;;;;;;47.30;25.85;;;;;;;;;;5998435;23;20019;-83
2022/11/14 10:50:55;;;;;;;43.03;23.65;;;;;;;;;;5996614;23;20023;-82
2022/11/14 10:53:36;;;;;;;45.67;25.75;;;;;;;;;;6016831;23;20022;-82
2022/11/14 10:56:02;;;;;;;50.10;27.10;;;;;;;;;;5994540;23;20034;-82
2022/11/14 10:58:28;;;;;;;43.40;24.55;;;;;;;;;;6001671;23;20019;-82
2022/11/14 11:00:54;;;;;;;43.47;24.80;;;;;;;;;;6005264;23;20024;-84
2022/11/14 11:03:39;;;;;;;43.70;25.63;;;;;;;;;;6017094;23;20026;-83
2022/11/14 11:06:23;;;;;;;43.00;24.85;;;;;;;;;;6106720;23;20049;-82
2022/11/14 11:11:34;;;;;;;45.50;25.20;;;;;;;;;;6108620;23;20022;-82
2022/11/14 11:14:00;;;;;;;38.25;22.83;;;;;;;;;;6087554;23;20025;-84
2022/11/14 11:16:28;;;;;;;38.10;23.40;;;;;;;;;;6087162;23;20036;-85
2022/11/14 11:19:12;;;;;;;42.78;23.85;;;;;;;;;;6113909;23;20110;-83
2022/11/14 11:21:49;;;;;;;41.85;26.70;;;7.60;99.90;;;;;;6113661;23;20018;-82
2022/11/14 11:24:38;;;;;;;40.55;23.95;;;;;;;;;;6089875;23;20025;-82
2022/11/14 11:27:25;;;;;;;45.35;23.98;;;7.30;99.90;;;;;;6092308;23;20025;-83
2022/11/14 11:30:21;;;;;;;46.20;25.45;;;7.50;99.90;;;;;;6117846;23;20447;-83
2022/11/14 11:32:48;;;;;;;41.03;24.63;;;;;;;;;;6092129;23;20064;-84
2022/11/14 11:35:17;;;;;;;41.67;25.73;;;;;;;;;;6114689;23;20169;-82
2022/11/14 11:38:04;;;;;;;40.63;24.25;;;7.60;99.90;;;;;;6118230;23;20429;-83
2022/11/14 11:40:32;;;;;;;42.45;23.35;;;;;;;;;;6113751;23;20018;-82
2022/11/14 11:43:03;;;;;;;40.22;22.42;;;;;;;;;;6087202;23;20018;-83
2022/11/14 11:45:29;;;;;;;42.10;23.48;;;;;;;;;;6110993;23;20022;-83
2022/11/14 11:48:03;;;;;;;41.78;26.00;;;;;;;;;;6092153;23;20017;-84
2022/11/14 11:50:29;;;;;;;41.25;24.35;;;;;;;;;;6094063;23;20022;-82
2022/11/14 11:53:11;;;;;;;43.65;25.15;;;;;;;;;;6130451;23;20041;-83
2022/11/14 11:55:44;;;;;;;43.10;24.65;;;;;;;;;;6149108;23;20113;-82
2022/11/14 11:58:30;;;;;;;37.58;22.88;;;;;;;;;;6149459;23;20024;-82
2022/11/14 12:00:57;;;;;;;39.78;23.40;;;;;;;;;;6151323;23;20021;-82
2022/11/14 12:03:24;;;;;;;37.55;23.17;;;;;;;;;;6157489;23;20071;-85
2022/11/14 12:05:56;;;;;;;37.65;23.75;;;;;;;;;;6180611;23;20055;-82
2022/11/14 12:09:02;;;;;;;42.60;22.00;;;8.20;99.90;;;;;;6149004;23;20025;-83
2022/11/14 12:11:31;;;;;;;36.83;23.30;;;;;;;;;;6168552;23;20496;-82
2022/11/14 12:14:33;;;;;;;36.95;22.52;;;;;;;;;;6167026;23;20013;-82
2022/11/14 12:17:14;;;;;;;38.72;23.77;;;;;;;;;;6004584;23;20027;-82
2022/11/14 12:19:52;;;;;;;35.58;22.13;;;;;;;;;;6160236;23;20017;-82
2022/11/14 12:22:37;;;;;;;37.72;22.77;;;;;;;;;;6146386;23;20013;-82
2022/11/14 12:25:31;;;;;;;36.08;23.65;;;8.40;99.90;;;;;;6142069;23;20017;-81
2022/11/14 12:27:57;;;;;;;42.13;22.17;;;;;;;;;;6153011;23;20045;-81
2022/11/14 12:30:23;;;;;;;45.70;22.83;;;;;;;;;;6145451;23;20017;-82
2022/11/14 12:32:54;;;;;;;33.42;22.00;;;;;;;;;;6124653;23;20013;-82
2022/11/14 12:35:22;;;;;;;42.45;23.90;;;;;;;;;;6148169;23;20021;-81
2022/11/14 12:37:49;;;;;;;39.15;22.17;;;;;;;;;;6116080;23;20065;-82
2022/11/14 12:40:42;;;;;;;34.65;22.75;;;;;;;;;;6116223;23;20028;-85
2022/11/14 12:43:31;;;;;;;36.50;22.52;;;8.50;99.90;;;;;;6112481;23;20018;-81
2022/11/14 12:45:58;;;;;;;39.90;23.73;;;;;;;;;;6119466;23;20013;-82
2022/11/14 12:48:32;;;;;;;36.88;22.95;;;8.30;99.90;;;;;;6142296;23;20084;-84
2022/11/14 12:50:59;;;;;;;37.63;24.25;;;8.40;99.90;;;;;;6141861;23;20020;-81
2022/11/14 16:57:06;;;;;;;26.13;16.67;;;;;;;;;;6174814;23;20489;-95
2022/11/14 18:02:28;;;;;;;28.23;17.75;;;;;;;;;;6222703;23;20042;-95
2022/11/14 18:44:09;;;;;;;38.83;22.30;;;8.10;99.90;;;;;;6250412;22;20039;-82
2022/11/14 18:46:37;;;;;;;31.73;21.90;;;;;;;;;;6161965;23;20367;-87
2022/11/14 18:49:03;;;;;;;41.90;22.83;;;;;;;;;;6192075;23;20027;-83
2022/11/14 18:51:29;;;;;;;38.60;22.05;;;;;;;;;;6168780;23;20426;-84
2022/11/14 18:53:58;;;;;;;40.13;22.27;;;;;;;;;;6167561;23;20473;-87
2022/11/14 18:56:24;;;;;;;32.90;21.27;;;;;;;;;;6192862;23;20021;-86
2022/11/14 18:58:55;;;;;;;36.60;22.73;;;;;;;;;;6165889;23;20016;-81
2022/11/14 19:01:27;;;;;;;39.17;22.00;;;8.00;99.90;;;;;;6165663;23;20082;-83
2022/11/14 19:04:15;;;;;;;38.25;22.98;;;;;;;;;;6164530;23;20103;-82
2022/11/14 19:06:42;;;;;;;34.53;22.40;;;;;;;;;;6165733;23;20020;-87
2022/11/14 19:09:12;;;;;;;38.83;22.52;;;;;;;;;;6190472;23;20020;-83
2022/11/14 19:14:27;;;;;;;38.78;20.77;;;;;;;;;;6191156;23;20035;-90
2022/11/14 19:16:53;;;;;;;37.97;22.83;;;;;;;;;;6192220;23;20081;-81
2022/11/14 19:19:19;;;;;;;40.55;22.92;;;;;;;;;;6192523;23;20028;-85
2022/11/14 19:21:49;;;;;;;34.35;22.00;;;;;;;;;;6193348;23;20021;-85
2022/11/14 19:24:16;;;;;;;35.75;21.42;;;;;;;;;;6167845;23;20044;-87
2022/11/14 19:26:42;;;;;;;40.22;22.13;;;;;;;;;;6167874;23;20021;-83
2022/11/14 19:29:12;;;;;;;37.00;22.15;;;;;;;;;;6191376;23;20028;-87
2022/11/14 19:31:38;;;;;;;40.72;21.75;;;;;;;;;;6166038;23;20458;-83
2022/11/14 19:34:04;;;;;;;37.42;22.30;;;;;;;;;;6166992;23;20453;-84
2022/11/14 19:36:31;;;;;;;31.52;20.98;;;;;;;;;;6191313;23;20020;-85
2022/11/14 19:38:58;;;;;;;34.70;21.80;;;;;;;;;;6167809;23;20071;-84
2022/11/14 19:41:25;;;;;;;33.88;20.95;;;;;;;;;;6166714;23;20098;-81
2022/11/14 19:43:52;;;;;;;35.40;21.70;;;;;;;;;;6166536;23;20027;-84
2022/11/14 19:46:20;;;;;;;39.42;21.83;;;;;;;;;;6166390;23;20024;-85
2022/11/14 19:48:48;;;;;;;36.42;23.13;;;;;;;;;;6171644;23;20116;-82
2022/11/14 19:51:18;;;;;;;35.08;23.10;;;;;;;;;;6148663;23;20024;-83
2022/11/14 19:53:45;;;;;;;35.97;22.40;;;;;;;;;;6171335;23;20021;-83
2022/11/14 19:56:12;;;;;;;35.85;22.58;;;;;;;;;;6145495;23;20028;-82
2022/11/14 19:58:39;;;;;;;37.25;23.75;;;;;;;;;;6145120;23;20017;-82
2022/11/14 20:01:07;;;;;;;36.92;24.00;;;;;;;;;;6143357;23;20017;-83
2022/11/14 20:03:33;;;;;;;42.05;24.27;;;;;;;;;;6167730;23;20359;-83
2022/11/14 20:05:59;;;;;;;36.88;23.33;;;;;;;;;;6143253;23;20076;-83
2022/11/14 20:08:25;;;;;;;36.22;23.55;;;;;;;;;;6168000;23;20025;-83
2022/11/14 20:10:55;;;;;;;38.38;24.25;;;;;;;;;;6144429;23;20021;-82
2022/11/14 20:13:21;;;;;;;35.80;22.83;;;;;;;;;;6168062;23;20159;-83
2022/11/14 20:15:47;;;;;;;34.10;22.25;;;;;;;;;;6144621;23;20076;-83
2022/11/14 20:18:14;;;;;;;39.88;22.80;;;;;;;;;;6145312;23;20020;-82
2022/11/14 20:20:40;;;;;;;39.53;24.02;;;;;;;;;;6171191;23;20037;-83
2022/11/14 20:23:06;;;;;;;34.00;22.92;;;;;;;;;;6170264;23;20021;-83
2022/11/14 20:25:34;;;;;;;38.17;22.38;;;;;;;;;;6164077;23;20025;-83
2022/11/14 20:28:00;;;;;;;36.60;22.67;;;;;;;;;;6139134;23;20025;-82